sensor_id;sensor_type;location;lat;lon;timestamp;P1;durP1;ratioP1;P2;durP2;ratioP2
11220;SDS011;8517;53.546;10.104;2023-06-10T00:00:49;5.63;;;3.37;;
11220;SDS011;8517;53.546;10.104;2023-06-10T00:03:16;5.27;;;3.20;;
11220;SDS011;8517;53.546;10.104;2023-06-10T00:05:43;7.23;;;3.53;;
11220;SDS011;8517;53.546;10.104;2023-06-10T00:08:10;5.57;;;3.67;;
11220;SDS011;8517;53.546;10.104;2023-06-10T00:10:37;5.93;;;3.67;;
11220;SDS011;8517;53.546;10.104;2023-06-10T00:13:05;4.73;;;3.30;;
11220;SDS011;8517;53.546;10.104;2023-06-10T00:15:35;6.17;;;3.77;;
11220;SDS011;8517;53.546;10.104;2023-06-10T00:18:02;6.00;;;3.53;;
11220;SDS011;8517;53.546;10.104;2023-06-10T00:20:29;6.17;;;3.03;;
11220;SDS011;8517;53.546;10.104;2023-06-10T00:22:57;7.50;;;3.50;;
11220;SDS011;8517;53.546;10.104;2023-06-10T00:25:26;8.60;;;3.47;;
11220;SDS011;8517;53.546;10.104;2023-06-10T00:27:55;6.90;;;3.70;;
11220;SDS011;8517;53.546;10.104;2023-06-10T00:30:21;8.57;;;3.80;;
11220;SDS011;8517;53.546;10.104;2023-06-10T00:32:50;6.17;;;3.20;;
11220;SDS011;8517;53.546;10.104;2023-06-10T00:35:17;5.57;;;3.47;;
11220;SDS011;8517;53.546;10.104;2023-06-10T00:37:43;6.23;;;3.10;;
11220;SDS011;8517;53.546;10.104;2023-06-10T00:40:11;4.87;;;3.13;;
11220;SDS011;8517;53.546;10.104;2023-06-10T00:42:38;4.47;;;3.40;;
11220;SDS011;8517;53.546;10.104;2023-06-10T00:45:05;6.67;;;3.50;;
11220;SDS011;8517;53.546;10.104;2023-06-10T00:47:33;6.53;;;2.93;;
11220;SDS011;8517;53.546;10.104;2023-06-10T00:50:02;7.37;;;3.17;;
11220;SDS011;8517;53.546;10.104;2023-06-10T00:52:30;6.90;;;3.13;;
11220;SDS011;8517;53.546;10.104;2023-06-10T00:54:57;6.73;;;3.40;;
11220;SDS011;8517;53.546;10.104;2023-06-10T00:57:25;7.57;;;3.17;;
11220;SDS011;8517;53.546;10.104;2023-06-10T00:59:51;4.40;;;3.60;;
11220;SDS011;8517;53.546;10.104;2023-06-10T01:02:18;5.67;;;3.40;;
11220;SDS011;8517;53.546;10.104;2023-06-10T01:04:45;5.67;;;2.97;;
11220;SDS011;8517;53.546;10.104;2023-06-10T01:07:17;4.87;;;2.87;;
11220;SDS011;8517;53.546;10.104;2023-06-10T01:09:52;6.70;;;3.43;;
11220;SDS011;8517;53.546;10.104;2023-06-10T01:12:24;5.07;;;3.30;;
11220;SDS011;8517;53.546;10.104;2023-06-10T01:14:57;8.73;;;3.23;;
11220;SDS011;8517;53.546;10.104;2023-06-10T01:17:25;8.33;;;3.03;;
11220;SDS011;8517;53.546;10.104;2023-06-10T01:19:53;6.67;;;3.07;;
11220;SDS011;8517;53.546;10.104;2023-06-10T01:22:23;6.77;;;3.67;;
11220;SDS011;8517;53.546;10.104;2023-06-10T01:24:51;4.37;;;2.60;;
11220;SDS011;8517;53.546;10.104;2023-06-10T01:27:19;5.50;;;2.80;;
11220;SDS011;8517;53.546;10.104;2023-06-10T01:29:49;8.20;;;3.07;;
11220;SDS011;8517;53.546;10.104;2023-06-10T01:32:23;7.00;;;3.23;;
11220;SDS011;8517;53.546;10.104;2023-06-10T01:34:53;5.47;;;3.37;;
11220;SDS011;8517;53.546;10.104;2023-06-10T01:37:23;7.73;;;3.43;;
11220;SDS011;8517;53.546;10.104;2023-06-10T01:39:52;4.23;;;2.90;;
11220;SDS011;8517;53.546;10.104;2023-06-10T01:42:23;5.07;;;3.00;;
11220;SDS011;8517;53.546;10.104;2023-06-10T01:44:50;4.80;;;2.77;;
11220;SDS011;8517;53.546;10.104;2023-06-10T01:47:17;8.73;;;2.83;;
11220;SDS011;8517;53.546;10.104;2023-06-10T01:49:44;7.43;;;2.80;;
11220;SDS011;8517;53.546;10.104;2023-06-10T01:52:11;8.87;;;3.17;;
11220;SDS011;8517;53.546;10.104;2023-06-10T01:54:40;5.60;;;3.27;;
11220;SDS011;8517;53.546;10.104;2023-06-10T01:57:06;5.53;;;2.87;;
11220;SDS011;8517;53.546;10.104;2023-06-10T01:59:33;5.87;;;2.90;;
11220;SDS011;8517;53.546;10.104;2023-06-10T02:02:01;7.50;;;2.50;;
11220;SDS011;8517;53.546;10.104;2023-06-10T02:04:28;5.30;;;3.00;;
11220;SDS011;8517;53.546;10.104;2023-06-10T02:06:56;5.40;;;2.90;;
11220;SDS011;8517;53.546;10.104;2023-06-10T02:09:23;4.67;;;2.90;;
11220;SDS011;8517;53.546;10.104;2023-06-10T02:11:51;4.70;;;2.73;;
11220;SDS011;8517;53.546;10.104;2023-06-10T02:14:18;5.37;;;2.60;;
11220;SDS011;8517;53.546;10.104;2023-06-10T02:16:44;7.53;;;2.70;;
11220;SDS011;8517;53.546;10.104;2023-06-10T02:19:12;4.63;;;2.60;;
11220;SDS011;8517;53.546;10.104;2023-06-10T02:21:38;5.70;;;2.73;;
11220;SDS011;8517;53.546;10.104;2023-06-10T02:24:05;5.10;;;2.50;;
11220;SDS011;8517;53.546;10.104;2023-06-10T02:26:33;5.20;;;2.70;;
11220;SDS011;8517;53.546;10.104;2023-06-10T02:29:01;5.37;;;2.70;;
11220;SDS011;8517;53.546;10.104;2023-06-10T02:31:28;4.83;;;2.60;;
11220;SDS011;8517;53.546;10.104;2023-06-10T02:33:55;5.70;;;2.80;;
11220;SDS011;8517;53.546;10.104;2023-06-10T02:36:22;5.77;;;2.27;;
11220;SDS011;8517;53.546;10.104;2023-06-10T02:38:49;6.13;;;2.70;;
11220;SDS011;8517;53.546;10.104;2023-06-10T02:41:16;5.03;;;2.60;;
11220;SDS011;8517;53.546;10.104;2023-06-10T02:43:43;4.97;;;2.23;;
11220;SDS011;8517;53.546;10.104;2023-06-10T02:46:11;5.30;;;2.40;;
11220;SDS011;8517;53.546;10.104;2023-06-10T02:48:41;4.57;;;2.43;;
11220;SDS011;8517;53.546;10.104;2023-06-10T02:51:09;4.90;;;2.30;;
11220;SDS011;8517;53.546;10.104;2023-06-10T02:53:36;5.17;;;2.20;;
11220;SDS011;8517;53.546;10.104;2023-06-10T02:56:03;3.37;;;2.30;;
11220;SDS011;8517;53.546;10.104;2023-06-10T02:58:30;6.33;;;2.57;;
11220;SDS011;8517;53.546;10.104;2023-06-10T03:00:58;4.50;;;2.40;;
11220;SDS011;8517;53.546;10.104;2023-06-10T03:03:26;3.00;;;2.07;;
11220;SDS011;8517;53.546;10.104;2023-06-10T03:05:53;5.53;;;2.27;;
11220;SDS011;8517;53.546;10.104;2023-06-10T03:08:21;7.70;;;2.30;;
11220;SDS011;8517;53.546;10.104;2023-06-10T03:10:48;8.03;;;2.60;;
11220;SDS011;8517;53.546;10.104;2023-06-10T03:13:15;4.13;;;2.30;;
11220;SDS011;8517;53.546;10.104;2023-06-10T03:15:42;6.17;;;2.30;;
11220;SDS011;8517;53.546;10.104;2023-06-10T03:18:09;6.17;;;2.40;;
11220;SDS011;8517;53.546;10.104;2023-06-10T03:20:37;8.80;;;2.40;;
11220;SDS011;8517;53.546;10.104;2023-06-10T03:23:05;6.47;;;2.10;;
11220;SDS011;8517;53.546;10.104;2023-06-10T03:25:32;4.07;;;2.00;;
11220;SDS011;8517;53.546;10.104;2023-06-10T03:27:59;7.33;;;2.10;;
11220;SDS011;8517;53.546;10.104;2023-06-10T03:30:26;3.90;;;2.03;;
11220;SDS011;8517;53.546;10.104;2023-06-10T03:32:53;4.60;;;1.97;;
11220;SDS011;8517;53.546;10.104;2023-06-10T03:35:20;3.57;;;2.00;;
11220;SDS011;8517;53.546;10.104;2023-06-10T03:37:48;5.77;;;2.13;;
11220;SDS011;8517;53.546;10.104;2023-06-10T03:40:15;3.93;;;2.03;;
11220;SDS011;8517;53.546;10.104;2023-06-10T03:42:42;5.23;;;2.40;;
11220;SDS011;8517;53.546;10.104;2023-06-10T03:45:10;4.70;;;2.30;;
11220;SDS011;8517;53.546;10.104;2023-06-10T03:47:37;5.63;;;2.03;;
11220;SDS011;8517;53.546;10.104;2023-06-10T03:50:05;3.80;;;2.00;;
11220;SDS011;8517;53.546;10.104;2023-06-10T03:52:34;5.67;;;1.90;;
11220;SDS011;8517;53.546;10.104;2023-06-10T03:55:02;6.47;;;2.13;;
11220;SDS011;8517;53.546;10.104;2023-06-10T03:57:30;5.83;;;2.60;;
11220;SDS011;8517;53.546;10.104;2023-06-10T03:59:57;7.07;;;2.20;;
11220;SDS011;8517;53.546;10.104;2023-06-10T04:02:24;4.57;;;2.23;;
11220;SDS011;8517;53.546;10.104;2023-06-10T04:04:51;5.70;;;2.20;;
11220;SDS011;8517;53.546;10.104;2023-06-10T04:07:18;5.03;;;2.20;;
11220;SDS011;8517;53.546;10.104;2023-06-10T04:09:45;6.03;;;2.30;;
11220;SDS011;8517;53.546;10.104;2023-06-10T04:12:14;6.03;;;2.27;;
11220;SDS011;8517;53.546;10.104;2023-06-10T04:14:41;4.73;;;2.00;;
11220;SDS011;8517;53.546;10.104;2023-06-10T04:17:08;5.73;;;2.43;;
11220;SDS011;8517;53.546;10.104;2023-06-10T04:19:35;5.03;;;2.20;;
11220;SDS011;8517;53.546;10.104;2023-06-10T04:22:02;4.63;;;2.10;;
11220;SDS011;8517;53.546;10.104;2023-06-10T04:24:30;5.20;;;2.07;;
11220;SDS011;8517;53.546;10.104;2023-06-10T04:26:57;4.60;;;2.13;;
11220;SDS011;8517;53.546;10.104;2023-06-10T04:29:25;4.00;;;2.03;;
11220;SDS011;8517;53.546;10.104;2023-06-10T04:31:52;4.50;;;2.07;;
11220;SDS011;8517;53.546;10.104;2023-06-10T04:34:18;5.50;;;2.20;;
11220;SDS011;8517;53.546;10.104;2023-06-10T04:36:45;5.57;;;2.20;;
11220;SDS011;8517;53.546;10.104;2023-06-10T04:39:12;5.70;;;1.80;;
11220;SDS011;8517;53.546;10.104;2023-06-10T04:41:41;5.27;;;2.13;;
11220;SDS011;8517;53.546;10.104;2023-06-10T04:44:08;3.47;;;2.10;;
11220;SDS011;8517;53.546;10.104;2023-06-10T04:46:37;5.90;;;1.93;;
11220;SDS011;8517;53.546;10.104;2023-06-10T04:49:04;6.83;;;1.93;;
11220;SDS011;8517;53.546;10.104;2023-06-10T04:51:31;6.47;;;3.63;;
11220;SDS011;8517;53.546;10.104;2023-06-10T04:53:58;4.83;;;2.10;;
11220;SDS011;8517;53.546;10.104;2023-06-10T04:56:27;6.63;;;2.30;;
11220;SDS011;8517;53.546;10.104;2023-06-10T04:58:55;4.27;;;1.83;;
11220;SDS011;8517;53.546;10.104;2023-06-10T05:01:21;5.50;;;1.90;;
11220;SDS011;8517;53.546;10.104;2023-06-10T05:03:50;8.10;;;1.90;;
11220;SDS011;8517;53.546;10.104;2023-06-10T05:06:16;5.10;;;2.00;;
11220;SDS011;8517;53.546;10.104;2023-06-10T05:08:43;5.50;;;2.50;;
11220;SDS011;8517;53.546;10.104;2023-06-10T05:11:10;5.60;;;2.00;;
11220;SDS011;8517;53.546;10.104;2023-06-10T05:13:37;5.80;;;1.73;;
11220;SDS011;8517;53.546;10.104;2023-06-10T05:16:05;4.00;;;1.83;;
11220;SDS011;8517;53.546;10.104;2023-06-10T05:18:32;4.53;;;1.90;;
11220;SDS011;8517;53.546;10.104;2023-06-10T05:21:01;7.67;;;2.30;;
11220;SDS011;8517;53.546;10.104;2023-06-10T05:23:28;3.67;;;1.90;;
11220;SDS011;8517;53.546;10.104;2023-06-10T05:25:55;5.80;;;1.90;;
11220;SDS011;8517;53.546;10.104;2023-06-10T05:28:23;4.47;;;1.70;;
11220;SDS011;8517;53.546;10.104;2023-06-10T05:30:50;3.83;;;1.90;;
11220;SDS011;8517;53.546;10.104;2023-06-10T05:33:16;7.07;;;1.93;;
11220;SDS011;8517;53.546;10.104;2023-06-10T05:35:43;5.70;;;2.00;;
11220;SDS011;8517;53.546;10.104;2023-06-10T05:38:11;6.80;;;2.00;;
11220;SDS011;8517;53.546;10.104;2023-06-10T05:40:38;4.93;;;1.30;;
11220;SDS011;8517;53.546;10.104;2023-06-10T05:43:05;4.70;;;1.87;;
11220;SDS011;8517;53.546;10.104;2023-06-10T05:45:32;4.73;;;1.90;;
11220;SDS011;8517;53.546;10.104;2023-06-10T05:47:58;6.17;;;2.10;;
11220;SDS011;8517;53.546;10.104;2023-06-10T05:50:25;6.23;;;2.00;;
11220;SDS011;8517;53.546;10.104;2023-06-10T05:52:52;4.00;;;1.70;;
11220;SDS011;8517;53.546;10.104;2023-06-10T05:55:21;4.50;;;1.80;;
11220;SDS011;8517;53.546;10.104;2023-06-10T05:57:48;8.53;;;4.93;;
11220;SDS011;8517;53.546;10.104;2023-06-10T06:00:24;6.27;;;2.10;;
11220;SDS011;8517;53.546;10.104;2023-06-10T06:02:51;4.73;;;1.97;;
11220;SDS011;8517;53.546;10.104;2023-06-10T06:05:19;7.10;;;1.90;;
11220;SDS011;8517;53.546;10.104;2023-06-10T06:07:46;5.80;;;2.20;;
11220;SDS011;8517;53.546;10.104;2023-06-10T06:10:12;4.60;;;1.90;;
11220;SDS011;8517;53.546;10.104;2023-06-10T06:12:41;6.23;;;2.00;;
11220;SDS011;8517;53.546;10.104;2023-06-10T06:15:08;10.63;;;2.10;;
11220;SDS011;8517;53.546;10.104;2023-06-10T06:17:36;3.97;;;1.47;;
11220;SDS011;8517;53.546;10.104;2023-06-10T06:20:03;9.77;;;2.47;;
11220;SDS011;8517;53.546;10.104;2023-06-10T06:22:30;5.63;;;1.60;;
11220;SDS011;8517;53.546;10.104;2023-06-10T06:24:57;5.17;;;2.20;;
11220;SDS011;8517;53.546;10.104;2023-06-10T06:27:24;4.70;;;1.90;;
11220;SDS011;8517;53.546;10.104;2023-06-10T06:29:52;6.32;;;2.35;;
11220;SDS011;8517;53.546;10.104;2023-06-10T06:32:19;5.03;;;2.22;;
11220;SDS011;8517;53.546;10.104;2023-06-10T06:34:47;7.88;;;2.15;;
11220;SDS011;8517;53.546;10.104;2023-06-10T06:37:19;4.30;;;2.17;;
11220;SDS011;8517;53.546;10.104;2023-06-10T06:39:46;6.45;;;2.05;;
11220;SDS011;8517;53.546;10.104;2023-06-10T06:42:13;6.15;;;2.20;;
11220;SDS011;8517;53.546;10.104;2023-06-10T06:44:40;6.15;;;2.20;;
11220;SDS011;8517;53.546;10.104;2023-06-10T06:47:08;6.78;;;2.30;;
11220;SDS011;8517;53.546;10.104;2023-06-10T06:49:35;6.10;;;1.98;;
11220;SDS011;8517;53.546;10.104;2023-06-10T06:52:02;6.57;;;2.70;;
11220;SDS011;8517;53.546;10.104;2023-06-10T06:54:29;6.63;;;2.08;;
11220;SDS011;8517;53.546;10.104;2023-06-10T06:56:56;4.93;;;2.33;;
11220;SDS011;8517;53.546;10.104;2023-06-10T06:59:23;5.80;;;2.10;;
11220;SDS011;8517;53.546;10.104;2023-06-10T07:01:50;4.25;;;2.05;;
11220;SDS011;8517;53.546;10.104;2023-06-10T07:04:20;4.95;;;2.33;;
11220;SDS011;8517;53.546;10.104;2023-06-10T07:06:47;5.22;;;2.25;;
11220;SDS011;8517;53.546;10.104;2023-06-10T07:09:14;6.65;;;2.60;;
11220;SDS011;8517;53.546;10.104;2023-06-10T07:11:41;4.65;;;2.10;;
11220;SDS011;8517;53.546;10.104;2023-06-10T07:14:08;3.40;;;2.15;;
11220;SDS011;8517;53.546;10.104;2023-06-10T07:16:35;6.88;;;2.30;;
11220;SDS011;8517;53.546;10.104;2023-06-10T07:19:02;11.05;;;8.82;;
11220;SDS011;8517;53.546;10.104;2023-06-10T07:21:30;18.08;;;14.60;;
11220;SDS011;8517;53.546;10.104;2023-06-10T07:23:58;7.90;;;4.28;;
11220;SDS011;8517;53.546;10.104;2023-06-10T07:26:25;5.20;;;2.30;;
11220;SDS011;8517;53.546;10.104;2023-06-10T07:28:52;3.95;;;1.75;;
11220;SDS011;8517;53.546;10.104;2023-06-10T07:31:19;7.30;;;2.42;;
11220;SDS011;8517;53.546;10.104;2023-06-10T07:33:46;5.25;;;2.72;;
11220;SDS011;8517;53.546;10.104;2023-06-10T07:36:13;5.90;;;2.40;;
11220;SDS011;8517;53.546;10.104;2023-06-10T07:38:41;2.95;;;2.15;;
11220;SDS011;8517;53.546;10.104;2023-06-10T07:41:08;6.68;;;2.50;;
11220;SDS011;8517;53.546;10.104;2023-06-10T07:43:36;4.18;;;2.20;;
11220;SDS011;8517;53.546;10.104;2023-06-10T07:46:03;6.95;;;2.70;;
11220;SDS011;8517;53.546;10.104;2023-06-10T07:48:31;7.45;;;2.40;;
11220;SDS011;8517;53.546;10.104;2023-06-10T07:50:58;5.45;;;1.98;;
11220;SDS011;8517;53.546;10.104;2023-06-10T07:53:24;5.35;;;2.38;;
11220;SDS011;8517;53.546;10.104;2023-06-10T07:55:53;5.07;;;2.15;;
11220;SDS011;8517;53.546;10.104;2023-06-10T07:58:19;5.15;;;2.40;;
11220;SDS011;8517;53.546;10.104;2023-06-10T08:00:47;4.97;;;2.22;;
11220;SDS011;8517;53.546;10.104;2023-06-10T08:03:14;6.80;;;2.70;;
11220;SDS011;8517;53.546;10.104;2023-06-10T08:05:40;4.28;;;2.30;;
11220;SDS011;8517;53.546;10.104;2023-06-10T08:08:07;5.18;;;2.45;;
11220;SDS011;8517;53.546;10.104;2023-06-10T08:10:35;5.88;;;2.50;;
11220;SDS011;8517;53.546;10.104;2023-06-10T08:13:03;3.25;;;2.10;;
11220;SDS011;8517;53.546;10.104;2023-06-10T08:15:30;5.93;;;2.63;;
11220;SDS011;8517;53.546;10.104;2023-06-10T08:17:57;4.13;;;2.50;;
11220;SDS011;8517;53.546;10.104;2023-06-10T08:20:23;5.35;;;2.63;;
11220;SDS011;8517;53.546;10.104;2023-06-10T08:22:50;4.78;;;2.72;;
11220;SDS011;8517;53.546;10.104;2023-06-10T08:25:17;6.72;;;2.60;;
11220;SDS011;8517;53.546;10.104;2023-06-10T08:27:46;4.38;;;2.28;;
11220;SDS011;8517;53.546;10.104;2023-06-10T08:30:15;5.32;;;2.08;;
11220;SDS011;8517;53.546;10.104;2023-06-10T08:32:41;5.32;;;2.75;;
11220;SDS011;8517;53.546;10.104;2023-06-10T08:35:08;5.20;;;2.50;;
11220;SDS011;8517;53.546;10.104;2023-06-10T08:37:35;5.13;;;2.40;;
11220;SDS011;8517;53.546;10.104;2023-06-10T08:40:03;5.75;;;2.83;;
11220;SDS011;8517;53.546;10.104;2023-06-10T08:42:33;5.88;;;2.85;;
11220;SDS011;8517;53.546;10.104;2023-06-10T08:45:02;3.53;;;2.50;;
11220;SDS011;8517;53.546;10.104;2023-06-10T08:47:32;12.90;;;3.00;;
11220;SDS011;8517;53.546;10.104;2023-06-10T08:50:01;3.30;;;2.47;;
11220;SDS011;8517;53.546;10.104;2023-06-10T08:52:33;5.53;;;2.90;;
11220;SDS011;8517;53.546;10.104;2023-06-10T08:55:03;7.40;;;2.85;;
11220;SDS011;8517;53.546;10.104;2023-06-10T08:57:35;6.65;;;2.50;;
11220;SDS011;8517;53.546;10.104;2023-06-10T09:00:02;5.38;;;2.83;;
11220;SDS011;8517;53.546;10.104;2023-06-10T09:02:32;4.05;;;2.45;;
11220;SDS011;8517;53.546;10.104;2023-06-10T09:05:01;7.22;;;2.60;;
11220;SDS011;8517;53.546;10.104;2023-06-10T09:07:29;8.05;;;2.65;;
11220;SDS011;8517;53.546;10.104;2023-06-10T09:09:59;4.68;;;2.80;;
11220;SDS011;8517;53.546;10.104;2023-06-10T09:12:31;5.53;;;2.78;;
11220;SDS011;8517;53.546;10.104;2023-06-10T09:14:58;4.57;;;2.72;;
11220;SDS011;8517;53.546;10.104;2023-06-10T09:17:26;4.22;;;2.10;;
11220;SDS011;8517;53.546;10.104;2023-06-10T09:19:55;5.88;;;2.90;;
11220;SDS011;8517;53.546;10.104;2023-06-10T09:22:22;4.38;;;2.97;;
11220;SDS011;8517;53.546;10.104;2023-06-10T09:24:51;8.68;;;3.20;;
11220;SDS011;8517;53.546;10.104;2023-06-10T09:27:29;4.45;;;2.78;;
11220;SDS011;8517;53.546;10.104;2023-06-10T09:29:57;4.32;;;2.70;;
11220;SDS011;8517;53.546;10.104;2023-06-10T09:32:24;7.72;;;2.83;;
11220;SDS011;8517;53.546;10.104;2023-06-10T09:34:51;5.97;;;2.95;;
11220;SDS011;8517;53.546;10.104;2023-06-10T09:37:23;5.13;;;3.03;;
11220;SDS011;8517;53.546;10.104;2023-06-10T09:40:03;5.68;;;2.58;;
11220;SDS011;8517;53.546;10.104;2023-06-10T09:42:34;6.13;;;2.72;;
11220;SDS011;8517;53.546;10.104;2023-06-10T09:45:03;4.93;;;2.47;;
11220;SDS011;8517;53.546;10.104;2023-06-10T09:47:31;6.07;;;2.58;;
11220;SDS011;8517;53.546;10.104;2023-06-10T09:49:58;7.28;;;3.28;;
11220;SDS011;8517;53.546;10.104;2023-06-10T09:52:27;5.85;;;2.85;;
11220;SDS011;8517;53.546;10.104;2023-06-10T09:54:58;3.22;;;2.80;;
11220;SDS011;8517;53.546;10.104;2023-06-10T09:57:26;5.65;;;3.05;;
11220;SDS011;8517;53.546;10.104;2023-06-10T09:59:58;6.95;;;2.92;;
11220;SDS011;8517;53.546;10.104;2023-06-10T10:02:25;4.60;;;2.88;;
11220;SDS011;8517;53.546;10.104;2023-06-10T10:04:52;7.30;;;3.38;;
11220;SDS011;8517;53.546;10.104;2023-06-10T10:07:18;4.57;;;2.90;;
11220;SDS011;8517;53.546;10.104;2023-06-10T10:09:47;3.92;;;2.53;;
11220;SDS011;8517;53.546;10.104;2023-06-10T10:12:15;6.53;;;3.53;;
11220;SDS011;8517;53.546;10.104;2023-06-10T10:14:43;3.28;;;2.55;;
11220;SDS011;8517;53.546;10.104;2023-06-10T10:17:14;4.28;;;2.72;;
11220;SDS011;8517;53.546;10.104;2023-06-10T10:19:43;4.30;;;3.00;;
11220;SDS011;8517;53.546;10.104;2023-06-10T10:22:15;6.50;;;3.28;;
11220;SDS011;8517;53.546;10.104;2023-06-10T10:24:49;4.25;;;3.22;;
11220;SDS011;8517;53.546;10.104;2023-06-10T10:27:18;5.22;;;3.03;;
11220;SDS011;8517;53.546;10.104;2023-06-10T10:29:48;6.88;;;3.35;;
11220;SDS011;8517;53.546;10.104;2023-06-10T10:32:20;4.05;;;3.20;;
11220;SDS011;8517;53.546;10.104;2023-06-10T10:34:53;9.50;;;3.25;;
11220;SDS011;8517;53.546;10.104;2023-06-10T10:37:29;7.22;;;3.30;;
11220;SDS011;8517;53.546;10.104;2023-06-10T10:39:58;8.13;;;3.25;;
11220;SDS011;8517;53.546;10.104;2023-06-10T10:42:26;6.38;;;3.28;;
11220;SDS011;8517;53.546;10.104;2023-06-10T10:44:57;5.57;;;3.70;;
11220;SDS011;8517;53.546;10.104;2023-06-10T10:48:19;5.57;;;3.70;;
11220;SDS011;8517;53.546;10.104;2023-06-10T10:50:53;4.60;;;3.10;;
11220;SDS011;8517;53.546;10.104;2023-06-10T10:53:22;8.65;;;3.17;;
11220;SDS011;8517;53.546;10.104;2023-06-10T10:55:59;4.07;;;3.03;;
11220;SDS011;8517;53.546;10.104;2023-06-10T10:58:26;9.65;;;3.22;;
11220;SDS011;8517;53.546;10.104;2023-06-10T11:00:53;6.47;;;3.65;;
11220;SDS011;8517;53.546;10.104;2023-06-10T11:03:20;7.15;;;3.13;;
11220;SDS011;8517;53.546;10.104;2023-06-10T11:08:49;5.85;;;3.17;;
11220;SDS011;8517;53.546;10.104;2023-06-10T11:11:20;7.43;;;3.60;;
11220;SDS011;8517;53.546;10.104;2023-06-10T11:13:58;6.75;;;3.17;;
11220;SDS011;8517;53.546;10.104;2023-06-10T11:16:38;3.65;;;3.00;;
11220;SDS011;8517;53.546;10.104;2023-06-10T11:19:06;8.15;;;3.50;;
11220;SDS011;8517;53.546;10.104;2023-06-10T11:21:36;6.50;;;3.45;;
11220;SDS011;8517;53.546;10.104;2023-06-10T11:24:23;3.63;;;3.30;;
11220;SDS011;8517;53.546;10.104;2023-06-10T11:26:52;5.10;;;3.10;;
11220;SDS011;8517;53.546;10.104;2023-06-10T11:29:19;5.18;;;3.33;;
11220;SDS011;8517;53.546;10.104;2023-06-10T11:31:49;8.20;;;3.40;;
11220;SDS011;8517;53.546;10.104;2023-06-10T11:34:23;3.88;;;3.05;;
11220;SDS011;8517;53.546;10.104;2023-06-10T11:36:52;8.35;;;3.75;;
11220;SDS011;8517;53.546;10.104;2023-06-10T11:39:19;6.70;;;3.60;;
11220;SDS011;8517;53.546;10.104;2023-06-10T11:41:58;7.80;;;3.90;;
11220;SDS011;8517;53.546;10.104;2023-06-10T11:44:47;5.75;;;3.75;;
11220;SDS011;8517;53.546;10.104;2023-06-10T11:47:14;7.22;;;4.20;;
11220;SDS011;8517;53.546;10.104;2023-06-10T11:49:41;4.78;;;3.80;;
11220;SDS011;8517;53.546;10.104;2023-06-10T11:52:08;8.30;;;3.60;;
11220;SDS011;8517;53.546;10.104;2023-06-10T11:54:35;7.22;;;3.90;;
11220;SDS011;8517;53.546;10.104;2023-06-10T11:57:04;6.57;;;4.32;;
11220;SDS011;8517;53.546;10.104;2023-06-10T11:59:33;7.15;;;3.72;;
11220;SDS011;8517;53.546;10.104;2023-06-10T12:02:00;7.20;;;4.13;;
11220;SDS011;8517;53.546;10.104;2023-06-10T12:04:28;4.20;;;3.33;;
11220;SDS011;8517;53.546;10.104;2023-06-10T12:06:55;6.50;;;4.20;;
11220;SDS011;8517;53.546;10.104;2023-06-10T12:09:22;5.80;;;3.90;;
11220;SDS011;8517;53.546;10.104;2023-06-10T12:11:51;7.35;;;3.70;;
11220;SDS011;8517;53.546;10.104;2023-06-10T12:17:22;5.43;;;3.55;;
11220;SDS011;8517;53.546;10.104;2023-06-10T12:19:50;4.35;;;3.47;;
11220;SDS011;8517;53.546;10.104;2023-06-10T12:22:17;6.78;;;3.92;;
11220;SDS011;8517;53.546;10.104;2023-06-10T12:24:45;10.43;;;4.40;;
11220;SDS011;8517;53.546;10.104;2023-06-10T12:27:24;5.90;;;4.15;;
11220;SDS011;8517;53.546;10.104;2023-06-10T12:29:55;4.78;;;4.25;;
11220;SDS011;8517;53.546;10.104;2023-06-10T12:32:34;6.18;;;3.55;;
11220;SDS011;8517;53.546;10.104;2023-06-10T12:35:02;6.22;;;3.83;;
11220;SDS011;8517;53.546;10.104;2023-06-10T12:37:30;6.50;;;3.63;;
11220;SDS011;8517;53.546;10.104;2023-06-10T12:39:59;5.88;;;3.97;;
11220;SDS011;8517;53.546;10.104;2023-06-10T12:42:28;5.78;;;3.92;;
11220;SDS011;8517;53.546;10.104;2023-06-10T12:44:57;5.47;;;3.72;;
11220;SDS011;8517;53.546;10.104;2023-06-10T12:47:29;6.63;;;4.05;;
11220;SDS011;8517;53.546;10.104;2023-06-10T12:49:57;7.18;;;3.90;;
11220;SDS011;8517;53.546;10.104;2023-06-10T12:52:24;7.82;;;3.80;;
11220;SDS011;8517;53.546;10.104;2023-06-10T12:54:51;5.78;;;3.65;;
11220;SDS011;8517;53.546;10.104;2023-06-10T12:57:19;5.97;;;4.10;;
11220;SDS011;8517;53.546;10.104;2023-06-10T12:59:46;6.70;;;3.75;;
11220;SDS011;8517;53.546;10.104;2023-06-10T13:02:18;6.28;;;4.40;;
11220;SDS011;8517;53.546;10.104;2023-06-10T13:04:46;6.75;;;3.70;;
11220;SDS011;8517;53.546;10.104;2023-06-10T13:07:13;4.22;;;3.45;;
11220;SDS011;8517;53.546;10.104;2023-06-10T13:09:43;6.90;;;4.53;;
11220;SDS011;8517;53.546;10.104;2023-06-10T13:12:14;6.85;;;3.85;;
11220;SDS011;8517;53.546;10.104;2023-06-10T13:14:44;7.45;;;3.88;;
11220;SDS011;8517;53.546;10.104;2023-06-10T13:17:11;6.45;;;4.32;;
11220;SDS011;8517;53.546;10.104;2023-06-10T13:19:39;6.43;;;3.80;;
11220;SDS011;8517;53.546;10.104;2023-06-10T13:22:06;6.93;;;4.38;;
11220;SDS011;8517;53.546;10.104;2023-06-10T13:24:33;8.45;;;3.88;;
11220;SDS011;8517;53.546;10.104;2023-06-10T13:27:00;5.25;;;3.40;;
11220;SDS011;8517;53.546;10.104;2023-06-10T13:29:27;5.28;;;3.65;;
11220;SDS011;8517;53.546;10.104;2023-06-10T13:31:53;4.38;;;3.53;;
11220;SDS011;8517;53.546;10.104;2023-06-10T13:34:20;5.30;;;3.88;;
11220;SDS011;8517;53.546;10.104;2023-06-10T13:36:48;6.15;;;3.72;;
11220;SDS011;8517;53.546;10.104;2023-06-10T13:39:15;5.25;;;3.58;;
11220;SDS011;8517;53.546;10.104;2023-06-10T13:41:42;11.52;;;3.58;;
11220;SDS011;8517;53.546;10.104;2023-06-10T13:44:09;5.68;;;3.10;;
11220;SDS011;8517;53.546;10.104;2023-06-10T13:46:36;5.55;;;3.22;;
11220;SDS011;8517;53.546;10.104;2023-06-10T13:49:02;7.18;;;3.40;;
11220;SDS011;8517;53.546;10.104;2023-06-10T13:51:29;5.32;;;3.20;;
11220;SDS011;8517;53.546;10.104;2023-06-10T13:53:57;6.13;;;3.22;;
11220;SDS011;8517;53.546;10.104;2023-06-10T13:56:24;7.75;;;3.42;;
11220;SDS011;8517;53.546;10.104;2023-06-10T13:58:51;5.80;;;3.20;;
11220;SDS011;8517;53.546;10.104;2023-06-10T14:01:18;5.60;;;3.20;;
11220;SDS011;8517;53.546;10.104;2023-06-10T14:03:46;6.57;;;3.28;;
11220;SDS011;8517;53.546;10.104;2023-06-10T14:06:21;5.20;;;2.80;;
11220;SDS011;8517;53.546;10.104;2023-06-10T14:08:47;5.07;;;3.13;;
11220;SDS011;8517;53.546;10.104;2023-06-10T14:11:16;5.00;;;2.88;;
11220;SDS011;8517;53.546;10.104;2023-06-10T14:13:42;6.05;;;2.85;;
11220;SDS011;8517;53.546;10.104;2023-06-10T14:16:09;6.22;;;3.15;;
11220;SDS011;8517;53.546;10.104;2023-06-10T14:18:36;6.65;;;3.08;;
11220;SDS011;8517;53.546;10.104;2023-06-10T14:21:03;8.45;;;3.40;;
11220;SDS011;8517;53.546;10.104;2023-06-10T14:23:29;7.10;;;3.05;;
11220;SDS011;8517;53.546;10.104;2023-06-10T14:25:56;8.18;;;3.60;;
11220;SDS011;8517;53.546;10.104;2023-06-10T14:28:25;5.28;;;3.20;;
11220;SDS011;8517;53.546;10.104;2023-06-10T14:30:52;8.13;;;3.25;;
11220;SDS011;8517;53.546;10.104;2023-06-10T14:33:19;6.90;;;2.95;;
11220;SDS011;8517;53.546;10.104;2023-06-10T14:35:46;8.48;;;3.00;;
11220;SDS011;8517;53.546;10.104;2023-06-10T14:38:15;7.35;;;3.35;;
11220;SDS011;8517;53.546;10.104;2023-06-10T14:40:56;6.90;;;3.08;;
11220;SDS011;8517;53.546;10.104;2023-06-10T14:43:24;5.68;;;3.10;;
11220;SDS011;8517;53.546;10.104;2023-06-10T14:45:51;6.63;;;3.50;;
11220;SDS011;8517;53.546;10.104;2023-06-10T14:48:20;6.15;;;3.10;;
11220;SDS011;8517;53.546;10.104;2023-06-10T14:50:47;10.45;;;2.92;;
11220;SDS011;8517;53.546;10.104;2023-06-10T14:53:15;6.95;;;3.20;;
11220;SDS011;8517;53.546;10.104;2023-06-10T14:55:42;7.97;;;3.20;;
11220;SDS011;8517;53.546;10.104;2023-06-10T14:58:09;4.72;;;2.80;;
11220;SDS011;8517;53.546;10.104;2023-06-10T15:00:37;11.65;;;9.00;;